Time;durP1;ratioP1;P1;durP2;ratioP2;P2;SDS_P1;SDS_P2;PMS_P1;PMS_P2;Temp;Humidity;BMP_temperature;BMP_pressure;BME280_temperature;BME280_humidity;BME280_pressure;Samples;Min_cycle;Max_cycle;Signal;HPM_P1;HPM_P2
2024/03/10 00:00:24;;;;;;;19.77;10.77;;;;;;;;;;784832;177;919311;-66
2024/03/10 00:02:47;;;;;;;17.27;10.47;;;;;;;;;;781905;177;919705;-66
2024/03/10 00:05:13;;;;;;;18.40;11.60;;;;;;;;;;778449;177;919461;-65
2024/03/10 00:07:39;;;;;;;15.20;10.80;;;;;;;;;;779199;177;949248;-65
2024/03/10 00:10:05;;;;;;;19.00;10.95;;;;;;;;;;781840;178;920132;-66
2024/03/10 00:12:31;;;;;;;20.20;12.50;;;;;;;;;;785115;174;916518;-66
2024/03/10 00:14:57;;;;;;;15.73;11.40;;;;;;;;;;779116;175;930335;-65
2024/03/10 00:17:22;;;;;;;19.87;10.35;;;;;;;;;;778087;177;920004;-65
2024/03/10 00:19:48;;;;;;;13.30;9.07;;;;;;;;;;785099;175;917809;-66
2024/03/10 00:22:14;;;;;;;15.37;11.10;;;;;;;;;;785198;176;919930;-66
2024/03/10 00:24:40;;;;;;;18.08;11.25;;;;;;;;;;785226;176;919304;-66
2024/03/10 00:27:06;;;;;;;19.20;11.03;;;;;;;;;;783837;177;920643;-67
2024/03/10 00:29:32;;;;;;;19.97;11.87;;;;;;;;;;783734;177;1085966;-66
2024/03/10 00:31:57;;;;;;;15.47;10.27;;;;;;;;;;782572;175;920659;-65
2024/03/10 00:34:23;;;;;;;20.27;12.67;;;;;;;;;;783153;177;919635;-66
2024/03/10 00:36:49;;;;;;;17.83;9.87;;;;;;;;;;786478;175;917986;-61
2024/03/10 00:39:15;;;;;;;17.70;11.30;;;;;;;;;;748868;183;819553;-61
2024/03/10 00:41:41;;;;;;;18.93;11.90;;;;;;;;;;748291;186;820288;-61
2024/03/10 00:44:06;;;;;;;20.50;11.60;;;;;;;;;;756173;186;918682;-60
2024/03/10 00:46:32;;;;;;;15.50;9.13;;;;;;;;;;755446;186;881460;-61
2024/03/10 00:48:58;;;;;;;17.63;11.13;;;;;;;;;;751644;186;905527;-60
2024/03/10 00:51:25;;;;;;;18.95;11.82;;;;;;;;;;754072;186;919252;-61
2024/03/10 00:53:51;;;;;;;23.40;12.50;;;;;;;;;;747672;187;882406;-61
2024/03/10 00:56:19;;;;;;;17.90;11.70;;;;;;;;;;748334;186;918165;-59
2024/03/10 00:58:42;;;;;;;17.50;10.97;;;;;;;;;;749849;186;919636;-60
2024/03/10 01:01:08;;;;;;;20.10;11.23;;;;;;;;;;757334;186;859047;-60
2024/03/10 01:03:34;;;;;;;15.77;9.87;;;;;;;;;;750893;184;849477;-61
2024/03/10 01:06:01;;;;;;;16.93;11.33;;;;;;;;;;750352;186;919052;-61
2024/03/10 01:08:26;;;;;;;17.40;9.90;;;;;;;;;;755358;183;920879;-60
2024/03/10 01:10:52;;;;;;;16.63;11.07;;;;;;;;;;748975;186;916878;-61
2024/03/10 01:13:17;;;;;;;16.40;10.07;;;;;;;;;;750664;183;852672;-59
2024/03/10 01:15:43;;;;;;;15.83;8.97;;;;;;;;;;757150;186;814712;-61
2024/03/10 01:18:09;;;;;;;18.70;10.27;;;;;;;;;;748694;186;919282;-59
2024/03/10 01:20:35;;;;;;;21.00;11.53;;;;;;;;;;750283;186;933294;-58
2024/03/10 01:23:01;;;;;;;17.80;11.03;;;;;;;;;;745459;186;917612;-59
2024/03/10 01:25:27;;;;;;;15.37;9.93;;;;;;;;;;755661;186;916792;-59
2024/03/10 01:27:52;;;;;;;18.47;11.53;;;;;;;;;;748410;183;900610;-59
2024/03/10 01:30:20;;;;;;;15.37;10.83;;;;;;;;;;748707;184;917854;-59
2024/03/10 01:32:44;;;;;;;15.37;10.00;;;;;;;;;;758057;185;888667;-61
2024/03/10 01:35:10;;;;;;;15.80;9.30;;;;;;;;;;752160;183;900433;-61
2024/03/10 01:37:37;;;;;;;16.67;10.50;;;;;;;;;;748160;185;909400;-62
2024/03/10 01:40:04;;;;;;;16.70;10.33;;;;;;;;;;758219;185;827731;-61
2024/03/10 01:42:28;;;;;;;14.03;9.33;;;;;;;;;;752606;183;920433;-59
2024/03/10 01:44:55;;;;;;;19.40;11.80;;;;;;;;;;749405;183;919079;-59
2024/03/10 01:47:20;;;;;;;17.30;10.27;;;;;;;;;;749820;186;900234;-59
2024/03/10 01:49:45;;;;;;;20.23;10.90;;;;;;;;;;755553;186;919416;-60
2024/03/10 01:52:11;;;;;;;16.10;10.90;;;;;;;;;;752064;186;918757;-59
2024/03/10 01:54:37;;;;;;;14.40;10.10;;;;;;;;;;750164;186;919592;-60
2024/03/10 01:57:04;;;;;;;14.03;8.37;;;;;;;;;;754806;186;918427;-59
2024/03/10 01:59:31;;;;;;;16.80;9.15;;;;;;;;;;750790;186;920158;-59
2024/03/10 02:01:54;;;;;;;19.23;11.20;;;;;;;;;;750713;186;919053;-60
2024/03/10 02:04:20;;;;;;;16.07;10.80;;;;;;;;;;756522;186;919372;-60
2024/03/10 02:06:47;;;;;;;16.93;10.23;;;;;;;;;;749842;186;920203;-61
2024/03/10 02:09:13;;;;;;;16.00;10.70;;;;;;;;;;749653;186;918575;-61
2024/03/10 02:11:39;;;;;;;13.60;9.93;;;;;;;;;;750608;186;919198;-62
2024/03/10 02:14:05;;;;;;;20.90;10.53;;;;;;;;;;757297;186;904478;-59
2024/03/10 02:16:30;;;;;;;14.60;9.40;;;;;;;;;;749005;186;837459;-61
2024/03/10 02:18:56;;;;;;;16.13;8.50;;;;;;;;;;746965;186;823750;-62
2024/03/10 02:21:22;;;;;;;17.73;9.17;;;;;;;;;;751775;183;818652;-61
2024/03/10 02:23:55;;;;;;;13.53;8.87;;;;;;;;;;750106;186;849093;-62
2024/03/10 02:26:20;;;;;;;17.30;11.67;;;;;;;;;;750288;186;919031;-59
2024/03/10 02:28:48;;;;;;;21.90;11.03;;;;;;;;;;748605;186;922425;-60
2024/03/10 02:49:18;;;;;;;12.00;7.33;;;;;;;;;;752294;186;928665;-60
2024/03/10 02:51:43;;;;;;;14.23;8.40;;;;;;;;;;750723;183;920769;-61
2024/03/10 02:54:09;;;;;;;14.47;7.50;;;;;;;;;;752521;183;918777;-60
2024/03/10 02:56:35;;;;;;;9.57;6.40;;;;;;;;;;752645;186;918897;-62
2024/03/10 02:59:01;;;;;;;9.57;6.30;;;;;;;;;;751813;186;847928;-60
2024/03/10 03:01:27;;;;;;;13.50;7.27;;;;;;;;;;751124;186;919589;-63
2024/03/10 03:03:53;;;;;;;16.08;8.18;;;;;;;;;;752068;186;922107;-60
2024/03/10 03:06:19;;;;;;;10.17;6.97;;;;;;;;;;750850;186;919487;-62
2024/03/10 03:08:45;;;;;;;12.63;8.27;;;;;;;;;;752553;186;918252;-64
2024/03/10 03:11:11;;;;;;;9.43;6.57;;;;;;;;;;749124;186;919128;-62
2024/03/10 03:13:36;;;;;;;11.83;7.80;;;;;;;;;;756723;186;919292;-61
2024/03/10 03:16:03;;;;;;;14.77;9.20;;;;;;;;;;750818;186;921690;-62
2024/03/10 03:18:29;;;;;;;12.75;7.57;;;;;;;;;;749147;186;919376;-61
2024/03/10 03:20:55;;;;;;;11.70;7.87;;;;;;;;;;753175;186;922480;-62
2024/03/10 03:23:21;;;;;;;9.97;7.10;;;;;;;;;;747301;186;958451;-62
2024/03/10 03:25:49;;;;;;;12.43;8.10;;;;;;;;;;748304;186;918601;-62
2024/03/10 03:28:13;;;;;;;13.83;8.13;;;;;;;;;;756551;186;1008152;-61
2024/03/10 03:30:42;;;;;;;18.70;7.67;;;;;;;;;;755256;186;922041;-63
2024/03/10 03:33:05;;;;;;;13.50;8.63;;;;;;;;;;750308;186;920933;-62
2024/03/10 03:35:30;;;;;;;14.93;7.00;;;;;;;;;;748987;186;1020719;-62
2024/03/10 03:37:56;;;;;;;11.90;7.15;;;;;;;;;;757927;186;860296;-60
2024/03/10 03:40:23;;;;;;;13.43;7.97;;;;;;;;;;750238;184;1126077;-61
2024/03/10 03:42:48;;;;;;;11.50;7.40;;;;;;;;;;749396;183;1022507;-60
2024/03/10 03:45:13;;;;;;;11.87;8.13;;;;;;;;;;757471;183;887475;-63
2024/03/10 03:47:40;;;;;;;11.73;7.67;;;;;;;;;;750500;184;912735;-62
2024/03/10 03:50:05;;;;;;;12.40;7.53;;;;;;;;;;749052;183;814210;-62
2024/03/10 03:52:31;;;;;;;12.37;7.87;;;;;;;;;;753301;186;901735;-62
2024/03/10 03:54:57;;;;;;;15.10;7.63;;;;;;;;;;747303;184;941952;-62
2024/03/10 03:57:23;;;;;;;13.80;7.70;;;;;;;;;;753581;183;910991;-59
2024/03/10 03:59:50;;;;;;;9.80;5.90;;;;;;;;;;750523;183;915951;-60
2024/03/10 04:02:15;;;;;;;11.30;6.80;;;;;;;;;;756638;185;918704;-59
2024/03/10 04:04:41;;;;;;;13.67;6.23;;;;;;;;;;750649;186;918499;-62
2024/03/10 04:07:06;;;;;;;9.52;5.60;;;;;;;;;;752932;186;921804;-61
2024/03/10 04:09:32;;;;;;;13.33;7.33;;;;;;;;;;755249;186;917593;-61
2024/03/10 04:11:59;;;;;;;6.67;3.60;;;;;;;;;;750398;186;919661;-60
2024/03/10 04:14:26;;;;;;;9.82;6.72;;;;;;;;;;750627;183;817262;-60
2024/03/10 04:16:50;;;;;;;10.83;6.83;;;;;;;;;;758285;186;816817;-60
2024/03/10 04:19:16;;;;;;;9.27;6.20;;;;;;;;;;752872;186;923924;-61
2024/03/10 04:21:42;;;;;;;11.67;7.40;;;;;;;;;;753568;183;919070;-62
2024/03/10 04:24:10;;;;;;;7.77;5.57;;;;;;;;;;749266;183;918915;-61
2024/03/10 04:26:34;;;;;;;13.83;7.77;;;;;;;;;;755665;186;927029;-60
2024/03/10 04:29:00;;;;;;;11.40;6.80;;;;;;;;;;750415;186;919479;-61
2024/03/10 04:31:25;;;;;;;9.60;6.17;;;;;;;;;;748152;183;920206;-59
2024/03/10 04:33:51;;;;;;;10.40;7.17;;;;;;;;;;754820;186;919202;-60
2024/03/10 04:36:19;;;;;;;15.13;7.90;;;;;;;;;;750525;186;920746;-61
2024/03/10 04:38:43;;;;;;;8.83;6.50;;;;;;;;;;750394;186;920820;-60
2024/03/10 04:41:09;;;;;;;8.77;6.30;;;;;;;;;;752104;183;918264;-60
2024/03/10 04:43:35;;;;;;;12.83;8.17;;;;;;;;;;749108;186;889248;-60
2024/03/10 04:46:00;;;;;;;8.35;5.12;;;;;;;;;;750349;186;918616;-60
2024/03/10 04:48:27;;;;;;;13.30;7.93;;;;;;;;;;752205;186;820720;-61
2024/03/10 04:50:52;;;;;;;11.63;7.30;;;;;;;;;;750570;186;919291;-60
2024/03/10 04:53:19;;;;;;;14.33;7.53;;;;;;;;;;751316;186;930510;-62
2024/03/10 04:55:44;;;;;;;12.40;6.90;;;;;;;;;;750771;186;917844;-65
2024/03/10 04:58:10;;;;;;;9.03;6.47;;;;;;;;;;754040;186;819093;-62
2024/03/10 05:00:35;;;;;;;13.20;6.73;;;;;;;;;;752228;186;816781;-61
2024/03/10 05:03:05;;;;;;;11.90;6.73;;;;;;;;;;751275;186;904408;-63
2024/03/10 05:05:29;;;;;;;10.85;6.60;;;;;;;;;;756979;186;919067;-60
2024/03/10 05:07:56;;;;;;;15.37;6.47;;;;;;;;;;751157;185;922004;-61
2024/03/10 05:10:21;;;;;;;10.60;6.90;;;;;;;;;;754071;183;916992;-60
2024/03/10 05:12:47;;;;;;;8.50;5.57;;;;;;;;;;751784;185;918177;-61
2024/03/10 05:15:15;;;;;;;12.43;6.80;;;;;;;;;;750500;186;873019;-60
2024/03/10 05:17:38;;;;;;;11.87;7.10;;;;;;;;;;750988;183;891961;-61
2024/03/10 05:20:05;;;;;;;9.07;5.60;;;;;;;;;;750067;186;930997;-62
2024/03/10 05:22:31;;;;;;;9.07;5.60;;;;;;;;;;756251;186;919347;-60
2024/03/10 05:24:56;;;;;;;8.90;5.83;;;;;;;;;;749091;186;919304;-60
2024/03/10 05:27:22;;;;;;;11.13;7.33;;;;;;;;;;747688;186;936086;-62
2024/03/10 05:29:48;;;;;;;10.02;6.15;;;;;;;;;;756738;186;863214;-60
2024/03/10 05:32:14;;;;;;;7.97;6.00;;;;;;;;;;746400;184;913822;-61
2024/03/10 05:34:40;;;;;;;9.50;5.80;;;;;;;;;;751916;186;923825;-60
2024/03/10 05:37:06;;;;;;;9.03;6.00;;;;;;;;;;748934;183;917500;-62
2024/03/10 05:39:32;;;;;;;10.83;5.90;;;;;;;;;;741560;188;922893;-60
2024/03/10 05:41:57;;;;;;;12.80;5.80;;;;;;;;;;747066;186;920161;-60
2024/03/10 05:44:23;;;;;;;15.07;6.68;;;;;;;;;;748067;186;920211;-60
2024/03/10 05:46:49;;;;;;;10.87;5.00;;;;;;;;;;754613;185;909583;-60
2024/03/10 05:49:15;;;;;;;8.30;5.73;;;;;;;;;;748876;184;909601;-60
2024/03/10 05:51:41;;;;;;;9.93;6.70;;;;;;;;;;745699;186;918321;-60
2024/03/10 05:54:06;;;;;;;11.40;5.60;;;;;;;;;;750335;186;918933;-60
2024/03/10 05:56:33;;;;;;;9.70;5.87;;;;;;;;;;747038;184;913083;-60
2024/03/10 05:59:00;;;;;;;11.97;5.67;;;;;;;;;;750016;186;919839;-60
2024/03/10 06:01:25;;;;;;;13.43;5.90;;;;;;;;;;755273;186;817472;-62
2024/03/10 06:03:51;;;;;;;10.67;5.50;;;;;;;;;;739538;186;717144;-61
2024/03/10 06:06:18;;;;;;;8.70;5.30;;;;;;;;;;751846;186;916807;-62
2024/03/10 06:08:44;;;;;;;8.87;6.20;;;;;;;;;;749949;186;849684;-62
2024/03/10 06:11:10;;;;;;;7.93;4.90;;;;;;;;;;752538;186;916291;-62
2024/03/10 06:13:37;;;;;;;11.45;5.47;;;;;;;;;;748151;184;908104;-62
2024/03/10 06:16:02;;;;;;;7.60;4.40;;;;;;;;;;749016;186;917871;-62
2024/03/10 06:25:22;;;;;;;8.50;5.17;;;;;;;;;;756112;184;918050;-62
2024/03/10 06:26:01;;;;;;;8.00;4.70;;;;;;;;;;748460;186;919486;-62
2024/03/10 06:28:28;;;;;;;5.87;3.50;;;;;;;;;;750622;183;920341;-61
2024/03/10 06:30:58;;;;;;;9.60;4.60;;;;;;;;;;751781;186;801393;-63
2024/03/10 06:33:20;;;;;;;9.13;5.53;;;;;;;;;;750212;183;918679;-60
2024/03/10 06:35:46;;;;;;;9.80;4.70;;;;;;;;;;751272;184;915883;-61
2024/03/10 06:38:12;;;;;;;7.50;4.90;;;;;;;;;;756536;186;919209;-60
2024/03/10 06:40:37;;;;;;;7.67;4.70;;;;;;;;;;747638;186;919389;-61
2024/03/10 06:43:03;;;;;;;8.07;4.80;;;;;;;;;;751036;186;919092;-60
2024/03/10 06:45:29;;;;;;;6.33;4.03;;;;;;;;;;756430;186;761655;-60
2024/03/10 06:47:55;;;;;;;6.40;4.00;;;;;;;;;;751290;183;920718;-61
2024/03/10 06:50:20;;;;;;;7.77;4.40;;;;;;;;;;753440;183;920544;-60
2024/03/10 06:52:46;;;;;;;6.57;4.00;;;;;;;;;;759117;186;624678;-60
2024/03/10 06:55:14;;;;;;;6.53;3.40;;;;;;;;;;742173;186;641256;-60
2024/03/10 06:57:38;;;;;;;8.67;5.10;;;;;;;;;;750992;186;919074;-60
2024/03/10 07:00:07;;;;;;;6.57;4.00;;;;;;;;;;749593;186;919067;-61
2024/03/10 07:02:30;;;;;;;6.60;4.90;;;;;;;;;;755395;186;919492;-60
2024/03/10 07:05:00;;;;;;;5.37;3.37;;;;;;;;;;750502;186;919525;-60
2024/03/10 07:07:22;;;;;;;9.27;3.97;;;;;;;;;;751970;184;918530;-61
2024/03/10 07:09:48;;;;;;;6.03;3.90;;;;;;;;;;752272;186;919256;-60
2024/03/10 07:12:14;;;;;;;6.20;3.80;;;;;;;;;;747978;186;919873;-60
2024/03/10 07:14:40;;;;;;;6.75;3.67;;;;;;;;;;749672;186;923268;-60
2024/03/10 07:17:05;;;;;;;5.87;3.50;;;;;;;;;;755185;183;855621;-60
2024/03/10 07:19:32;;;;;;;7.97;4.10;;;;;;;;;;751686;186;918902;-60
2024/03/10 07:21:57;;;;;;;8.20;3.63;;;;;;;;;;749898;184;922414;-60
2024/03/10 07:24:23;;;;;;;7.37;4.50;;;;;;;;;;747732;186;818589;-61
2024/03/10 07:26:49;;;;;;;8.73;4.07;;;;;;;;;;753875;186;826034;-60
2024/03/10 07:29:15;;;;;;;7.00;4.20;;;;;;;;;;751339;185;866958;-60
2024/03/10 07:31:41;;;;;;;7.43;4.30;;;;;;;;;;751576;185;919549;-61
2024/03/10 07:34:07;;;;;;;9.37;4.60;;;;;;;;;;757770;185;848218;-60
2024/03/10 07:36:32;;;;;;;9.93;5.27;;;;;;;;;;751265;186;919010;-60
2024/03/10 07:38:58;;;;;;;8.20;4.50;;;;;;;;;;753070;185;918771;-61
2024/03/10 07:41:24;;;;;;;7.73;3.67;;;;;;;;;;755321;186;918872;-60
2024/03/10 07:43:50;;;;;;;7.33;4.33;;;;;;;;;;750172;186;919423;-60
2024/03/10 07:46:16;;;;;;;6.73;4.20;;;;;;;;;;750308;186;931002;-61
2024/03/10 07:48:41;;;;;;;12.10;5.70;;;;;;;;;;756212;186;853716;-61
2024/03/10 07:51:08;;;;;;;6.80;4.20;;;;;;;;;;755681;186;632925;-60
2024/03/10 07:53:33;;;;;;;9.60;4.93;;;;;;;;;;749229;186;918666;-63
2024/03/10 07:55:59;;;;;;;8.88;5.62;;;;;;;;;;739082;189;918902;-63
2024/03/10 07:58:26;;;;;;;8.87;4.93;;;;;;;;;;748490;186;619142;-63
2024/03/10 08:00:51;;;;;;;7.70;4.10;;;;;;;;;;754848;186;618994;-62
2024/03/10 08:03:18;;;;;;;11.20;4.37;;;;;;;;;;753639;186;635326;-61
2024/03/10 08:05:43;;;;;;;7.53;4.57;;;;;;;;;;759299;186;634702;-63
2024/03/10 08:08:09;;;;;;;9.60;5.63;;;;;;;;;;751464;183;622824;-61
2024/03/10 08:10:35;;;;;;;6.27;4.13;;;;;;;;;;755805;186;627331;-60
2024/03/10 08:13:01;;;;;;;9.17;5.40;;;;;;;;;;754953;186;621987;-63
2024/03/10 08:15:27;;;;;;;7.07;4.30;;;;;;;;;;748836;186;627096;-64
2024/03/10 08:17:52;;;;;;;9.10;4.70;;;;;;;;;;753565;186;637225;-62
2024/03/10 08:20:19;;;;;;;7.27;4.00;;;;;;;;;;749243;185;623608;-63
2024/03/10 08:22:45;;;;;;;5.73;3.67;;;;;;;;;;757534;186;620659;-61
2024/03/10 08:25:10;;;;;;;5.63;3.67;;;;;;;;;;754463;184;633836;-62
2024/03/10 08:27:36;;;;;;;6.97;4.10;;;;;;;;;;751803;186;818394;-62
2024/03/10 08:30:02;;;;;;;7.90;3.90;;;;;;;;;;754453;186;843578;-60
2024/03/10 08:32:27;;;;;;;5.90;4.67;;;;;;;;;;750955;186;915405;-62
2024/03/10 08:34:53;;;;;;;5.83;3.30;;;;;;;;;;744322;187;910619;-60
2024/03/10 08:37:19;;;;;;;6.93;4.07;;;;;;;;;;754252;186;921672;-60
2024/03/10 08:39:45;;;;;;;6.10;4.00;;;;;;;;;;751129;186;840367;-63
2024/03/10 08:42:12;;;;;;;7.47;4.33;;;;;;;;;;754768;183;887970;-61
2024/03/10 08:44:37;;;;;;;9.23;4.30;;;;;;;;;;751360;182;929738;-62
2024/03/10 08:47:04;;;;;;;7.20;4.47;;;;;;;;;;757589;185;869241;-61
2024/03/10 08:49:28;;;;;;;7.10;4.73;;;;;;;;;;750064;186;919441;-60
2024/03/10 08:51:54;;;;;;;7.90;4.47;;;;;;;;;;749515;186;918509;-60
2024/03/10 08:54:20;;;;;;;7.60;4.37;;;;;;;;;;757470;186;785373;-63
2024/03/10 08:56:48;;;;;;;6.10;4.40;;;;;;;;;;751100;186;914436;-63
2024/03/10 08:59:13;;;;;;;11.50;6.17;;;;;;;;;;750832;186;918327;-63
2024/03/10 09:01:38;;;;;;;12.90;6.53;;;;;;;;;;754159;186;816517;-62
2024/03/10 09:04:06;;;;;;;7.80;5.37;;;;;;;;;;752450;184;920132;-60
2024/03/10 09:06:30;;;;;;;6.20;3.87;;;;;;;;;;748519;186;928415;-60
2024/03/10 09:08:57;;;;;;;7.23;3.70;;;;;;;;;;749569;186;934037;-60
2024/03/10 09:11:23;;;;;;;4.87;3.13;;;;;;;;;;757533;186;627003;-60
2024/03/10 09:13:48;;;;;;;5.90;4.00;;;;;;;;;;750991;186;919343;-61
2024/03/10 09:16:14;;;;;;;6.23;3.90;;;;;;;;;;752622;185;815228;-65
2024/03/10 09:18:40;;;;;;;7.90;5.00;;;;;;;;;;754694;185;919392;-61
2024/03/10 09:21:07;;;;;;;5.90;3.90;;;;;;;;;;752194;186;817865;-61
2024/03/10 09:23:31;;;;;;;9.30;4.30;;;;;;;;;;737138;186;922262;-62
2024/03/10 09:25:57;;;;;;;6.63;4.23;;;;;;;;;;749009;183;916596;-63
2024/03/10 09:28:24;;;;;;;9.40;5.37;;;;;;;;;;752197;186;816113;-60
2024/03/10 09:30:49;;;;;;;7.00;3.50;;;;;;;;;;750369;186;885276;-62
2024/03/10 09:33:16;;;;;;;6.57;4.90;;;;;;;;;;749620;185;922984;-60
2024/03/10 09:35:41;;;;;;;9.80;6.07;;;;;;;;;;741066;187;918241;-61
2024/03/10 09:38:06;;;;;;;6.23;4.27;;;;;;;;;;746118;183;812297;-65
2024/03/10 09:40:32;;;;;;;7.30;4.43;;;;;;;;;;747121;183;902845;-62
2024/03/10 09:43:00;;;;;;;6.37;3.90;;;;;;;;;;756094;186;815022;-62
2024/03/10 09:45:25;;;;;;;5.83;4.77;;;;;;;;;;750084;186;918778;-61
2024/03/10 09:47:51;;;;;;;5.93;3.78;;;;;;;;;;747736;184;918121;-62
2024/03/10 09:50:23;;;;;;;6.13;4.47;;;;;;;;;;755781;186;918561;-61
2024/03/10 09:52:44;;;;;;;6.90;4.83;;;;;;;;;;751365;182;964572;-61
2024/03/10 09:55:11;;;;;;;5.27;3.40;;;;;;;;;;749943;183;918048;-61
2024/03/10 09:57:36;;;;;;;6.17;4.30;;;;;;;;;;750754;185;814234;-63
2024/03/10 10:00:11;;;;;;;4.73;3.17;;;;;;;;;;752828;186;921254;-62
2024/03/10 10:02:29;;;;;;;8.43;3.50;;;;;;;;;;751652;186;922703;-60
2024/03/10 10:04:56;;;;;;;4.70;2.87;;;;;;;;;;750236;186;918474;-61
2024/03/10 10:07:23;;;;;;;3.33;2.10;;;;;;;;;;760402;186;654445;-63
2024/03/10 10:09:52;;;;;;;9.00;4.27;;;;;;;;;;750544;183;915493;-61
2024/03/10 10:12:18;;;;;;;7.53;4.33;;;;;;;;;;745791;184;920030;-61
2024/03/10 10:14:44;;;;;;;8.90;4.17;;;;;;;;;;748692;186;938076;-61
2024/03/10 10:17:10;;;;;;;15.07;4.47;;;;;;;;;;755736;186;915101;-62
2024/03/10 10:19:36;;;;;;;5.90;4.03;;;;;;;;;;750705;183;918757;-60
2024/03/10 10:22:05;;;;;;;5.90;4.10;;;;;;;;;;748765;186;918250;-60
2024/03/10 10:24:27;;;;;;;5.83;4.10;;;;;;;;;;759211;186;784086;-61
2024/03/10 10:26:57;;;;;;;7.53;4.80;;;;;;;;;;751087;186;919562;-60
2024/03/10 10:29:22;;;;;;;4.97;3.10;;;;;;;;;;751266;183;816917;-60
2024/03/10 10:31:49;;;;;;;4.80;3.23;;;;;;;;;;751536;186;926568;-62
2024/03/10 10:34:14;;;;;;;8.77;4.20;;;;;;;;;;750857;186;919116;-62
2024/03/10 10:36:40;;;;;;;5.63;3.53;;;;;;;;;;748193;186;916374;-62
2024/03/10 10:39:08;;;;;;;8.20;3.85;;;;;;;;;;750420;186;907713;-62
2024/03/10 10:41:35;;;;;;;5.90;3.70;;;;;;;;;;753778;183;713334;-63
2024/03/10 10:44:01;;;;;;;5.93;4.73;;;;;;;;;;753554;184;631810;-63
2024/03/10 10:46:27;;;;;;;6.07;4.40;;;;;;;;;;753622;186;824208;-60
2024/03/10 10:48:52;;;;;;;6.00;4.03;;;;;;;;;;754711;186;817026;-61
2024/03/10 10:51:18;;;;;;;6.17;3.50;;;;;;;;;;754326;184;620848;-61
2024/03/10 10:53:44;;;;;;;9.53;4.30;;;;;;;;;;753542;186;621771;-61
2024/03/10 10:56:11;;;;;;;6.70;4.07;;;;;;;;;;749964;183;919447;-63
2024/03/10 10:58:36;;;;;;;7.40;4.60;;;;;;;;;;751086;186;713782;-60
2024/03/10 11:01:04;;;;;;;6.10;4.50;;;;;;;;;;750869;186;817394;-60
2024/03/10 11:03:36;;;;;;;7.40;4.40;;;;;;;;;;751909;186;621992;-61
2024/03/10 11:06:16;;;;;;;5.90;4.00;;;;;;;;;;761228;184;620395;-60
2024/03/10 11:08:43;;;;;;;4.93;3.47;;;;;;;;;;755792;186;779763;-60
2024/03/10 11:11:08;;;;;;;8.00;3.77;;;;;;;;;;753458;183;635029;-62
2024/03/10 11:13:34;;;;;;;6.70;4.63;;;;;;;;;;751571;183;664749;-63
2024/03/10 11:16:05;;;;;;;5.30;3.80;;;;;;;;;;753576;184;872292;-62
2024/03/10 11:18:32;;;;;;;6.87;3.40;;;;;;;;;;749640;186;882063;-63
2024/03/10 11:20:56;;;;;;;7.50;3.90;;;;;;;;;;750215;185;919750;-62
2024/03/10 11:23:22;;;;;;;7.03;3.65;;;;;;;;;;749975;186;849905;-63
2024/03/10 11:25:50;;;;;;;6.47;3.70;;;;;;;;;;754786;186;917447;-63
2024/03/10 11:28:15;;;;;;;5.60;3.10;;;;;;;;;;754407;186;633477;-62
2024/03/10 11:30:48;;;;;;;6.10;4.47;;;;;;;;;;751874;184;641450;-60
2024/03/10 11:33:15;;;;;;;6.13;4.33;;;;;;;;;;754688;186;632077;-60
2024/03/10 11:35:39;;;;;;;5.77;3.67;;;;;;;;;;757934;186;818401;-61
2024/03/10 11:38:09;;;;;;;6.73;4.40;;;;;;;;;;750227;186;919322;-60
2024/03/10 11:40:31;;;;;;;4.27;2.63;;;;;;;;;;751151;186;920127;-60
2024/03/10 11:42:58;;;;;;;6.00;3.60;;;;;;;;;;754146;186;918292;-60
2024/03/10 11:45:25;;;;;;;4.90;3.70;;;;;;;;;;753778;183;669125;-62
2024/03/10 11:47:49;;;;;;;4.77;3.17;;;;;;;;;;754270;186;642829;-62
2024/03/10 11:50:15;;;;;;;5.60;3.30;;;;;;;;;;750359;186;917923;-62
2024/03/10 11:52:40;;;;;;;6.60;3.60;;;;;;;;;;749561;186;918764;-62
2024/03/10 11:55:11;;;;;;;5.70;2.97;;;;;;;;;;752690;186;918935;-59
2024/03/10 11:57:33;;;;;;;15.00;6.63;;;;;;;;;;751286;186;818069;-64
2024/03/10 11:59:58;;;;;;;8.80;3.73;;;;;;;;;;754119;185;755172;-62
2024/03/10 12:02:25;;;;;;;6.70;4.07;;;;;;;;;;748333;186;918925;-61
2024/03/10 12:04:52;;;;;;;6.85;3.80;;;;;;;;;;750194;186;919776;-60
2024/03/10 12:07:16;;;;;;;6.20;3.50;;;;;;;;;;757941;186;713031;-63
2024/03/10 12:09:42;;;;;;;5.80;3.70;;;;;;;;;;750794;186;921467;-62
2024/03/10 12:12:11;;;;;;;7.37;3.57;;;;;;;;;;755587;183;812028;-62
2024/03/10 12:14:37;;;;;;;7.33;4.90;;;;;;;;;;750586;186;628057;-62
2024/03/10 12:17:02;;;;;;;5.60;4.00;;;;;;;;;;746296;187;624408;-66
2024/03/10 12:19:28;;;;;;;8.70;4.67;;;;;;;;;;751705;186;631402;-62
2024/03/10 12:21:54;;;;;;;6.20;4.50;;;;;;;;;;754012;186;622209;-63
2024/03/10 12:24:20;;;;;;;6.60;4.40;;;;;;;;;;760235;183;619211;-63
2024/03/10 12:26:46;;;;;;;9.17;4.33;;;;;;;;;;755718;186;621954;-62
2024/03/10 12:29:12;;;;;;;6.27;3.50;;;;;;;;;;756131;183;635600;-62
2024/03/10 12:31:38;;;;;;;7.30;4.43;;;;;;;;;;759212;186;619254;-62
2024/03/10 12:34:04;;;;;;;7.10;4.40;;;;;;;;;;754628;183;628423;-63
2024/03/10 12:36:33;;;;;;;6.80;4.60;;;;;;;;;;751051;186;943023;-60
2024/03/10 12:38:56;;;;;;;5.90;4.30;;;;;;;;;;747887;186;915710;-61
2024/03/10 12:41:23;;;;;;;7.07;4.50;;;;;;;;;;742649;187;872510;-63
2024/03/10 12:43:47;;;;;;;11.07;7.00;;;;;;;;;;745155;186;918293;-62
2024/03/10 12:46:17;;;;;;;9.73;4.97;;;;;;;;;;747435;183;938327;-63
2024/03/10 12:48:41;;;;;;;11.17;5.70;;;;;;;;;;754592;184;917864;-61
2024/03/10 12:51:06;;;;;;;9.33;5.60;;;;;;;;;;752976;184;918034;-62
2024/03/10 12:53:32;;;;;;;11.50;5.28;;;;;;;;;;749395;186;923557;-60
2024/03/10 12:55:58;;;;;;;8.17;4.87;;;;;;;;;;755541;186;891932;-60
2024/03/10 12:58:24;;;;;;;8.57;5.43;;;;;;;;;;751170;186;924304;-60
2024/03/10 13:00:52;;;;;;;8.40;4.30;;;;;;;;;;751374;186;920371;-63
2024/03/10 13:03:15;;;;;;;8.70;5.10;;;;;;;;;;749664;186;860453;-62
2024/03/10 13:05:41;;;;;;;8.40;4.57;;;;;;;;;;740876;188;889826;-62
2024/03/10 13:08:09;;;;;;;9.37;5.60;;;;;;;;;;744999;186;919125;-60
2024/03/10 13:10:33;;;;;;;7.20;4.70;;;;;;;;;;748845;186;918692;-61
2024/03/10 13:13:00;;;;;;;11.63;6.73;;;;;;;;;;755691;185;919484;-61
2024/03/10 13:15:25;;;;;;;8.10;3.73;;;;;;;;;;750757;184;919701;-61
2024/03/10 13:17:50;;;;;;;11.00;4.67;;;;;;;;;;756136;183;633661;-62
2024/03/10 13:20:16;;;;;;;8.43;5.13;;;;;;;;;;757000;186;625175;-62
2024/03/10 13:22:42;;;;;;;8.93;5.90;;;;;;;;;;754914;186;626485;-62
2024/03/10 13:25:08;;;;;;;9.53;4.90;;;;;;;;;;755373;183;618292;-62
2024/03/10 13:27:35;;;;;;;7.67;4.80;;;;;;;;;;755923;185;911387;-62
2024/03/10 13:30:00;;;;;;;11.20;4.40;;;;;;;;;;754110;185;816480;-61
2024/03/10 13:32:25;;;;;;;11.07;5.00;;;;;;;;;;751587;183;815343;-60
2024/03/10 13:34:51;;;;;;;10.00;5.70;;;;;;;;;;751444;186;921411;-66
2024/03/10 13:37:17;;;;;;;10.00;5.87;;;;;;;;;;759216;186;618190;-63
2024/03/10 13:39:44;;;;;;;12.37;7.10;;;;;;;;;;752081;183;916057;-62
2024/03/10 13:42:09;;;;;;;9.97;5.10;;;;;;;;;;752557;184;626648;-63
2024/03/10 13:44:35;;;;;;;11.67;4.93;;;;;;;;;;758396;185;623879;-63
2024/03/10 13:47:01;;;;;;;11.60;6.10;;;;;;;;;;753104;184;765702;-62
2024/03/10 13:49:27;;;;;;;11.13;5.80;;;;;;;;;;748956;186;916604;-62
2024/03/10 13:51:52;;;;;;;6.60;4.37;;;;;;;;;;756631;186;908977;-63
2024/03/10 13:54:18;;;;;;;6.70;4.00;;;;;;;;;;750949;186;920393;-62
2024/03/10 13:56:44;;;;;;;9.10;5.10;;;;;;;;;;747368;186;919509;-60
2024/03/10 13:59:10;;;;;;;10.83;4.80;;;;;;;;;;748087;185;818364;-61
2024/03/10 14:01:36;;;;;;;7.00;4.83;;;;;;;;;;755066;185;921277;-60
2024/03/10 14:04:02;;;;;;;8.73;4.47;;;;;;;;;;748119;186;902986;-60
2024/03/10 14:06:31;;;;;;;6.53;4.37;;;;;;;;;;749958;183;848955;-61
2024/03/10 14:08:55;;;;;;;6.10;4.13;;;;;;;;;;754428;186;818061;-60
2024/03/10 14:11:21;;;;;;;7.50;4.33;;;;;;;;;;748090;186;808946;-61
2024/03/10 14:13:48;;;;;;;8.77;4.10;;;;;;;;;;750847;183;918552;-62
2024/03/10 14:16:12;;;;;;;6.60;3.07;;;;;;;;;;755944;183;873406;-62
2024/03/10 14:18:38;;;;;;;10.57;4.10;;;;;;;;;;748615;183;918924;-61
2024/03/10 14:21:08;;;;;;;8.33;3.57;;;;;;;;;;747653;185;918304;-61
2024/03/10 14:23:30;;;;;;;10.63;5.00;;;;;;;;;;745978;186;817461;-60
2024/03/10 14:25:56;;;;;;;10.90;4.17;;;;;;;;;;756330;186;869487;-62
2024/03/10 14:28:22;;;;;;;12.87;3.40;;;;;;;;;;751507;184;919671;-62
2024/03/10 14:30:48;;;;;;;5.03;2.80;;;;;;;;;;751311;186;921375;-60
2024/03/10 14:33:13;;;;;;;8.53;3.60;;;;;;;;;;754569;186;874947;-60
2024/03/10 14:35:39;;;;;;;5.17;3.80;;;;;;;;;;750493;186;919138;-60
2024/03/10 14:38:05;;;;;;;6.33;3.90;;;;;;;;;;749201;186;918578;-60